createdAt,value
2022-12-27T00:01:31.263Z,74.71
2022-12-27T00:04:02.077Z,74.96
2022-12-27T00:06:33.015Z,75.04
2022-12-27T00:09:04.160Z,75.01
2022-12-27T00:11:35.034Z,75.11
2022-12-27T00:14:07.761Z,75.01
2022-12-27T00:16:38.702Z,74.89
2022-12-27T00:19:09.709Z,74.59
2022-12-27T00:21:40.417Z,74.61
2022-12-27T00:24:11.392Z,74.97
2022-12-27T00:26:42.473Z,74.69
2022-12-27T00:29:13.568Z,74.67
2022-12-27T00:31:44.264Z,75.01
2022-12-27T00:34:14.912Z,74.83
2022-12-27T00:36:45.924Z,75.08
2022-12-27T00:39:17.286Z,75.11
2022-12-27T00:41:48.083Z,75.27
2022-12-27T00:44:19.057Z,75.26
2022-12-27T00:46:49.875Z,75.37
2022-12-27T00:49:21.752Z,75.40
2022-12-27T00:51:52.556Z,75.16
2022-12-27T00:54:23.207Z,75.15
2022-12-27T00:56:53.950Z,75.11
2022-12-27T00:59:24.608Z,75.38
2022-12-27T01:01:55.329Z,75.33
2022-12-27T01:04:26.173Z,75.21
2022-12-27T01:06:56.881Z,75.08
2022-12-27T01:09:27.737Z,75.27
2022-12-27T01:11:59.004Z,75.15
2022-12-27T01:14:29.717Z,74.81
2022-12-27T01:17:00.370Z,74.40
2022-12-27T01:19:31.457Z,74.28
2022-12-27T01:22:03.134Z,74.19
2022-12-27T01:24:34.499Z,73.91
2022-12-27T01:27:05.328Z,73.91
2022-12-27T01:29:36.074Z,73.50
2022-12-27T01:32:07.078Z,73.43
2022-12-27T01:34:37.814Z,73.64
2022-12-27T01:37:09.817Z,73.55
2022-12-27T01:39:40.527Z,73.67
2022-12-27T01:42:37.602Z,73.47
2022-12-27T01:45:12.136Z,73.54
2022-12-27T01:47:50.032Z,73.48
2022-12-27T01:50:27.481Z,73.39
2022-12-27T01:53:05.461Z,72.72
2022-12-27T01:55:41.627Z,72.72
2022-12-27T01:58:16.072Z,71.91
2022-12-27T02:00:49.192Z,72.17
2022-12-27T02:03:26.010Z,72.33
2022-12-27T02:05:58.039Z,71.90
2022-12-27T02:08:41.512Z,71.56
2022-12-27T02:11:14.500Z,70.87
2022-12-27T02:13:44.353Z,70.79
2022-12-27T02:16:18.146Z,70.94
2022-12-27T02:18:49.321Z,70.98
2022-12-27T02:21:47.161Z,70.85
2022-12-27T02:24:37.917Z,70.34
2022-12-27T02:27:20.598Z,70.34
2022-12-27T02:30:02.997Z,70.37
2022-12-27T02:32:38.744Z,70.64
2022-12-27T02:35:14.690Z,70.71
2022-12-27T02:37:50.575Z,70.93
2022-12-27T02:40:42.474Z,70.99
2022-12-27T02:43:31.400Z,71.09
2022-12-27T02:46:29.102Z,71.20
2022-12-27T02:49:18.299Z,71.21
2022-12-27T02:52:21.936Z,71.43
2022-12-27T02:55:21.487Z,71.22
2022-12-27T02:58:02.776Z,71.22
2022-12-27T03:00:59.263Z,71.37
2022-12-27T03:03:53.591Z,71.65
2022-12-27T03:06:46.040Z,71.51
2022-12-27T03:09:56.524Z,71.18
2022-12-27T03:13:03.705Z,71.59
2022-12-27T03:15:56.595Z,71.21
2022-12-27T03:18:47.464Z,70.95
2022-12-27T03:21:43.098Z,70.67
2022-12-27T03:24:33.012Z,70.18
2022-12-27T03:27:05.948Z,70.01
2022-12-27T03:29:52.905Z,69.88
2022-12-27T03:32:42.629Z,70.02
2022-12-27T03:35:18.723Z,70.52
2022-12-27T03:38:06.227Z,69.86
2022-12-27T03:41:06.143Z,69.78
2022-12-27T03:43:38.033Z,69.73
2022-12-27T03:46:39.098Z,69.25
2022-12-27T03:49:21.280Z,69.16
2022-12-27T03:51:56.557Z,68.97
2022-12-27T03:54:30.216Z,68.70
2022-12-27T03:57:03.888Z,69.40
2022-12-27T03:59:34.743Z,69.07
2022-12-27T04:02:06.594Z,69.22
2022-12-27T04:04:37.872Z,69.26
2022-12-27T04:07:09.087Z,69.21
2022-12-27T04:09:57.691Z,69.16
2022-12-27T04:12:45.936Z,69.23
2022-12-27T04:15:34.237Z,68.57
2022-12-27T04:18:23.057Z,68.74
2022-12-27T04:21:11.486Z,68.64
2022-12-27T04:23:59.946Z,68.67
2022-12-27T04:26:48.244Z,68.55
2022-12-27T04:29:36.676Z,68.64
2022-12-27T04:32:25.239Z,68.45
2022-12-27T04:34:55.860Z,67.93
2022-12-27T04:37:26.536Z,68.03
2022-12-27T04:40:11.121Z,67.62
2022-12-27T04:43:00.769Z,67.70
2022-12-27T04:45:49.298Z,67.59
2022-12-27T04:48:38.387Z,67.53
2022-12-27T04:51:28.668Z,67.41
2022-12-27T04:54:17.126Z,67.22
2022-12-27T04:56:47.721Z,67.41
2022-12-27T04:59:35.353Z,67.62
2022-12-27T05:02:06.147Z,67.56
2022-12-27T05:04:40.880Z,67.55
2022-12-27T05:07:31.522Z,67.57
2022-12-27T05:10:22.277Z,67.43
2022-12-27T05:13:11.007Z,67.44
2022-12-27T05:15:41.746Z,67.30
2022-12-27T05:18:12.391Z,67.15
2022-12-27T05:20:43.136Z,67.22
2022-12-27T05:23:32.375Z,67.55
2022-12-27T05:26:03.227Z,67.78
2022-12-27T05:28:33.924Z,66.60
2022-12-27T05:31:05.493Z,66.36
2022-12-27T05:33:36.191Z,66.58
2022-12-27T05:36:08.413Z,66.91
2022-12-27T05:38:39.152Z,66.74
2022-12-27T05:41:10.287Z,66.56
2022-12-27T05:43:41.521Z,66.87
2022-12-27T05:46:14.048Z,66.11
2022-12-27T05:48:45.176Z,66.34
2022-12-27T05:51:19.080Z,65.40
2022-12-27T05:53:50.341Z,65.13
2022-12-27T05:56:22.602Z,64.76
2022-12-27T05:58:56.283Z,65.10
2022-12-27T06:01:27.051Z,65.32
2022-12-27T06:03:57.813Z,65.23
2022-12-27T06:06:28.448Z,65.04
2022-12-27T06:08:59.109Z,65.06
2022-12-27T06:11:29.835Z,65.04
2022-12-27T06:14:00.549Z,64.97
2022-12-27T06:16:31.196Z,65.06
2022-12-27T06:19:01.921Z,65.15
2022-12-27T06:21:32.674Z,64.05
2022-12-27T06:24:03.450Z,64.18
2022-12-27T06:26:34.386Z,64.27
2022-12-27T06:29:05.225Z,63.86
2022-12-27T06:31:36.005Z,63.95
2022-12-27T06:34:06.671Z,64.13
2022-12-27T06:36:37.342Z,63.72
2022-12-27T06:39:08.389Z,64.07
2022-12-27T06:41:39.033Z,64.16
2022-12-27T06:44:09.708Z,63.96
2022-12-27T06:46:40.455Z,63.85
2022-12-27T06:49:12.733Z,64.13
2022-12-27T06:51:43.591Z,63.80
2022-12-27T06:54:14.268Z,63.42
2022-12-27T06:56:45.699Z,63.51
2022-12-27T06:59:16.393Z,63.89
2022-12-27T07:01:47.182Z,63.87
2022-12-27T07:04:18.001Z,64.27
2022-12-27T07:06:48.915Z,64.89
2022-12-27T07:09:19.928Z,64.79
2022-12-27T07:11:50.741Z,64.68
2022-12-27T07:14:21.546Z,64.76
2022-12-27T07:16:52.921Z,64.25
2022-12-27T07:19:23.642Z,64.49
2022-12-27T07:21:54.438Z,64.60
2022-12-27T07:24:25.077Z,64.76
2022-12-27T07:26:55.824Z,64.91
2022-12-27T07:29:26.485Z,65.03
2022-12-27T07:31:57.316Z,65.62
2022-12-27T07:34:28.110Z,65.67
2022-12-27T07:36:58.776Z,65.65
2022-12-27T07:39:29.437Z,65.90
2022-12-27T07:42:04.783Z,66.16
2022-12-27T07:44:41.285Z,66.07
2022-12-27T07:47:11.941Z,65.71
2022-12-27T07:49:42.548Z,65.91
2022-12-27T07:52:13.206Z,66.13
2022-12-27T07:54:44.287Z,66.24
2022-12-27T07:57:14.977Z,66.17
2022-12-27T07:59:45.754Z,66.00
2022-12-27T08:02:16.920Z,66.67
2022-12-27T08:04:47.623Z,66.68
2022-12-27T08:07:20.747Z,66.17
2022-12-27T08:09:51.478Z,66.25
2022-12-27T08:12:22.147Z,66.34
2022-12-27T08:14:52.744Z,66.33
2022-12-27T08:17:27.852Z,66.17
2022-12-27T08:19:58.592Z,66.14
2022-12-27T08:22:29.718Z,66.20
2022-12-27T08:25:00.345Z,65.78
2022-12-27T08:27:31.556Z,66.12
2022-12-27T08:30:04.847Z,65.59
2022-12-27T08:32:35.470Z,65.36
2022-12-27T08:35:41.783Z,65.80
2022-12-27T08:37:57.430Z,65.96
2022-12-27T08:40:28.380Z,65.63
2022-12-27T08:42:59.936Z,65.44
2022-12-27T08:45:30.578Z,65.69
2022-12-27T08:48:03.012Z,65.58
2022-12-27T08:50:34.282Z,66.10
2022-12-27T08:53:07.071Z,66.29
2022-12-27T08:55:37.889Z,66.12
2022-12-27T08:58:16.074Z,65.83
2022-12-27T09:00:47.305Z,66.04
2022-12-27T09:03:21.424Z,66.34
2022-12-27T09:05:52.109Z,65.87
2022-12-27T09:08:22.763Z,65.91
2022-12-27T09:10:53.442Z,65.89
2022-12-27T09:13:24.154Z,66.20
2022-12-27T09:15:54.973Z,66.00
2022-12-27T09:18:25.653Z,65.96
2022-12-27T09:20:56.354Z,66.20
2022-12-27T09:23:27.111Z,66.35
2022-12-27T09:25:57.808Z,65.94
2022-12-27T09:28:28.573Z,65.61
2022-12-27T09:30:59.213Z,65.49
2022-12-27T09:33:30.561Z,65.54
2022-12-27T09:36:10.119Z,65.62
2022-12-27T09:38:41.485Z,66.02
2022-12-27T09:41:59.011Z,65.71
2022-12-27T09:44:20.128Z,65.25
2022-12-27T09:46:54.288Z,65.51
2022-12-27T09:49:32.125Z,65.68
2022-12-27T09:52:08.373Z,65.38
2022-12-27T09:54:47.707Z,64.86
2022-12-27T09:57:22.557Z,64.46
2022-12-27T09:59:58.413Z,64.36
2022-12-27T10:02:30.149Z,64.41
2022-12-27T10:05:19.603Z,64.53
2022-12-27T10:08:03.903Z,64.26
2022-12-27T10:10:44.270Z,64.27
2022-12-27T10:13:30.746Z,64.50
2022-12-27T10:16:16.727Z,64.11
2022-12-27T10:19:00.595Z,63.72
2022-12-27T10:21:36.044Z,63.13
2022-12-27T10:24:18.172Z,62.53
2022-12-27T10:26:48.961Z,62.71
2022-12-27T10:29:23.392Z,62.27
2022-12-27T10:31:54.707Z,62.41
2022-12-27T10:34:25.568Z,62.35
2022-12-27T10:36:56.310Z,62.73
2022-12-27T10:39:29.754Z,62.31
2022-12-27T10:42:10.819Z,62.36
2022-12-27T10:44:42.817Z,62.09
2022-12-27T10:47:14.128Z,61.99
2022-12-27T10:50:02.766Z,61.59
2022-12-27T10:52:35.787Z,61.50
2022-12-27T10:55:07.191Z,60.59
2022-12-27T10:57:37.849Z,60.92
2022-12-27T11:00:23.311Z,60.86
2022-12-27T11:02:55.864Z,60.21
2022-12-27T11:05:29.649Z,60.47
2022-12-27T11:08:01.315Z,59.71
2022-12-27T11:10:32.982Z,59.88
2022-12-27T11:13:06.146Z,59.86
2022-12-27T11:15:39.216Z,59.46
2022-12-27T11:18:19.200Z,58.74
2022-12-27T11:20:53.191Z,58.61
2022-12-27T11:23:25.542Z,58.71
2022-12-27T11:25:59.057Z,58.80
2022-12-27T11:28:37.596Z,58.68
2022-12-27T11:31:11.284Z,58.21
2022-12-27T11:33:46.729Z,58.37
2022-12-27T11:36:25.686Z,58.10
2022-12-27T11:38:56.592Z,57.80
2022-12-27T11:41:38.351Z,57.43
2022-12-27T11:44:16.116Z,57.67
2022-12-27T11:46:58.556Z,57.46
2022-12-27T11:49:37.050Z,57.98
2022-12-27T11:52:25.759Z,57.73
2022-12-27T11:55:22.301Z,58.07
2022-12-27T11:58:15.619Z,58.51
2022-12-27T12:01:03.593Z,58.85
2022-12-27T12:04:09.136Z,59.51
2022-12-27T12:06:53.352Z,59.80
2022-12-27T12:09:43.898Z,60.11
2022-12-27T12:12:39.247Z,60.56
2022-12-27T12:15:34.871Z,60.72
2022-12-27T12:18:16.696Z,60.70
2022-12-27T12:21:13.707Z,60.96
2022-12-27T12:24:01.028Z,60.99
2022-12-27T12:26:38.790Z,60.82
2022-12-27T12:29:34.978Z,60.71
2022-12-27T12:32:42.149Z,61.12
2022-12-27T12:35:40.095Z,61.31
2022-12-27T12:38:23.665Z,61.80
2022-12-27T12:41:17.893Z,61.38
2022-12-27T12:44:08.855Z,61.87
2022-12-27T12:46:44.039Z,61.73
2022-12-27T12:49:30.149Z,61.73
2022-12-27T12:52:26.644Z,61.89
2022-12-27T12:55:20.559Z,61.91
2022-12-27T12:57:59.506Z,61.72
2022-12-27T13:00:33.241Z,62.21
2022-12-27T13:03:46.021Z,62.17
2022-12-27T13:06:28.556Z,61.97
2022-12-27T13:09:11.292Z,61.93
2022-12-27T13:11:55.549Z,62.09
2022-12-27T13:14:42.365Z,61.95
2022-12-27T13:17:20.501Z,62.09
2022-12-27T13:20:06.740Z,61.96
2022-12-27T13:22:49.372Z,62.21
2022-12-27T13:25:28.135Z,62.21
2022-12-27T13:28:21.810Z,62.31
2022-12-27T13:31:00.686Z,62.36
2022-12-27T13:33:36.125Z,62.44
2022-12-27T13:36:23.282Z,62.58
2022-12-27T13:39:22.876Z,62.70
2022-12-27T13:42:10.216Z,62.91
2022-12-27T13:44:55.791Z,62.94
2022-12-27T13:47:53.431Z,63.37
2022-12-27T13:50:57.876Z,63.44
2022-12-27T13:54:05.268Z,63.19
2022-12-27T13:56:53.875Z,62.99
2022-12-27T13:59:51.711Z,63.46
2022-12-27T14:03:02.815Z,63.54
2022-12-27T14:06:12.042Z,63.44
2022-12-27T14:09:07.691Z,63.36
2022-12-27T14:11:49.919Z,63.39
2022-12-27T14:14:22.237Z,63.58
2022-12-27T14:17:09.703Z,63.78
2022-12-27T14:20:04.846Z,63.89
2022-12-27T14:22:54.294Z,63.71
2022-12-27T14:26:00.132Z,63.65
2022-12-27T14:29:10.299Z,63.79
2022-12-27T14:32:11.676Z,64.15
2022-12-27T14:35:04.775Z,64.04
2022-12-27T14:38:19.518Z,64.25
2022-12-27T14:41:30.437Z,64.39
2022-12-27T14:44:29.463Z,64.43
2022-12-27T14:47:38.649Z,64.21
2022-12-27T14:50:21.311Z,64.41
2022-12-27T14:53:21.625Z,64.17
2022-12-27T14:56:08.795Z,64.22
2022-12-27T14:59:09.119Z,64.30
2022-12-27T15:01:53.543Z,64.21
2022-12-27T15:04:53.196Z,63.92
2022-12-27T15:08:03.995Z,63.94
2022-12-27T15:11:02.421Z,63.72
2022-12-27T15:13:52.819Z,63.83
2022-12-27T15:16:32.151Z,63.65
2022-12-27T15:19:18.138Z,63.70
2022-12-27T15:22:08.124Z,63.67
2022-12-27T15:24:49.751Z,63.83
2022-12-27T15:27:26.409Z,63.78
2022-12-27T15:30:23.912Z,63.59
2022-12-27T15:33:04.233Z,63.56
2022-12-27T15:35:50.515Z,63.48
2022-12-27T15:38:38.969Z,63.25
2022-12-27T15:41:28.339Z,63.43
2022-12-27T15:44:13.557Z,63.66
2022-12-27T15:47:08.134Z,63.51
2022-12-27T15:49:56.927Z,63.56
2022-12-27T15:52:43.527Z,63.49
2022-12-27T15:55:32.157Z,63.58
2022-12-27T15:58:16.650Z,63.49
2022-12-27T16:01:08.454Z,63.55
2022-12-27T16:03:40.745Z,63.53
2022-12-27T16:06:32.510Z,63.64
2022-12-27T16:09:23.000Z,63.81
2022-12-27T16:12:09.958Z,63.60
2022-12-27T16:14:43.429Z,63.56
2022-12-27T16:17:36.660Z,63.40
2022-12-27T16:20:15.395Z,63.28
2022-12-27T16:22:52.339Z,63.44
2022-12-27T16:25:31.425Z,63.48
2022-12-27T16:28:07.576Z,63.64
2022-12-27T16:30:48.910Z,63.44
2022-12-27T16:33:41.033Z,63.55
2022-12-27T16:36:33.519Z,63.53
2022-12-27T16:39:38.362Z,63.90
2022-12-27T16:42:10.269Z,63.56
2022-12-27T16:45:04.853Z,63.86
2022-12-27T16:48:08.898Z,64.06
2022-12-27T16:51:03.806Z,64.03
2022-12-27T16:54:05.718Z,64.15
2022-12-27T16:56:38.201Z,64.40
2022-12-27T16:59:48.532Z,64.29
2022-12-27T17:02:41.954Z,64.30
2022-12-27T17:05:41.902Z,64.61
2022-12-27T17:08:21.225Z,64.80
2022-12-27T17:11:03.945Z,64.84
2022-12-27T17:13:47.839Z,64.91
2022-12-27T17:16:22.821Z,64.86
2022-12-27T17:18:57.901Z,64.90
2022-12-27T17:21:32.711Z,65.27
2022-12-27T17:24:09.165Z,65.22
2022-12-27T17:27:06.266Z,65.02
2022-12-27T17:29:54.341Z,65.00
2022-12-27T17:32:38.190Z,64.72
2022-12-27T17:35:17.347Z,64.74
2022-12-27T17:38:12.446Z,64.89
2022-12-27T17:40:54.434Z,64.86
2022-12-27T17:43:53.181Z,64.77
2022-12-27T17:46:39.208Z,64.96
2022-12-27T17:49:11.839Z,64.96
2022-12-27T17:52:04.767Z,65.18
2022-12-27T17:54:53.383Z,65.10
2022-12-27T17:57:42.254Z,65.41
2022-12-27T18:00:25.501Z,65.52
2022-12-27T18:02:59.015Z,65.75
2022-12-27T18:05:34.102Z,66.05
2022-12-27T18:08:08.091Z,66.23
2022-12-27T18:10:39.035Z,66.21
2022-12-27T18:13:16.885Z,66.04
2022-12-27T18:15:49.775Z,66.23
2022-12-27T18:18:24.778Z,66.04
2022-12-27T18:20:59.640Z,66.23
2022-12-27T18:23:31.124Z,66.24
2022-12-27T18:26:13.494Z,66.68
2022-12-27T18:28:45.145Z,66.66
2022-12-27T18:31:22.740Z,66.95
2022-12-27T18:33:56.323Z,66.94
2022-12-27T18:36:30.907Z,66.99
2022-12-27T18:39:08.341Z,67.09
2022-12-27T18:41:44.335Z,67.01
2022-12-27T18:44:26.774Z,67.33
2022-12-27T18:47:01.616Z,67.33
2022-12-27T18:49:34.896Z,67.25
2022-12-27T18:52:14.901Z,67.33
2022-12-27T18:54:45.549Z,67.50
2022-12-27T18:57:33.037Z,67.54
2022-12-27T19:00:14.306Z,67.17
2022-12-27T19:02:46.213Z,67.16
2022-12-27T19:05:27.950Z,67.14
2022-12-27T19:08:10.346Z,67.06
2022-12-27T19:10:47.512Z,67.07
2022-12-27T19:13:26.908Z,67.00
2022-12-27T19:15:58.931Z,66.98
2022-12-27T19:18:32.477Z,67.06
2022-12-27T19:21:05.691Z,67.08
2022-12-27T19:23:38.256Z,67.05
2022-12-27T19:26:25.183Z,67.19
2022-12-27T19:29:04.213Z,67.32
2022-12-27T19:31:36.108Z,67.30
2022-12-27T19:34:11.906Z,67.47
2022-12-27T19:36:45.157Z,67.56
2022-12-27T19:39:22.460Z,67.25
2022-12-27T19:41:54.082Z,67.47
2022-12-27T19:44:32.841Z,67.38
2022-12-27T19:47:03.460Z,67.28
2022-12-27T19:49:42.631Z,67.06
2022-12-27T19:52:19.357Z,67.09
2022-12-27T19:54:52.110Z,67.29
2022-12-27T19:57:23.242Z,66.92
2022-12-27T19:59:53.896Z,67.10
2022-12-27T20:02:24.899Z,67.07
2022-12-27T20:04:55.711Z,66.95
2022-12-27T20:07:27.538Z,67.05
2022-12-27T20:09:58.563Z,66.98
2022-12-27T20:12:29.474Z,67.24
2022-12-27T20:15:00.303Z,66.91
2022-12-27T20:17:32.856Z,66.72
2022-12-27T20:20:03.787Z,66.73
2022-12-27T20:22:35.598Z,66.78
2022-12-27T20:25:07.185Z,66.79
2022-12-27T20:27:38.054Z,66.61
2022-12-27T20:30:11.389Z,66.57
2022-12-27T20:32:42.051Z,66.54
2022-12-27T20:35:13.127Z,66.60
2022-12-27T20:37:44.193Z,66.60
2022-12-27T20:40:16.069Z,66.66
2022-12-27T20:42:46.938Z,66.65
2022-12-27T20:45:18.570Z,66.58
2022-12-27T20:47:49.548Z,66.63
2022-12-27T20:50:20.536Z,66.80
2022-12-27T20:52:51.489Z,66.97
2022-12-27T20:55:22.656Z,67.13
2022-12-27T20:57:53.562Z,67.17
2022-12-27T21:00:24.377Z,67.39
2022-12-27T21:02:55.163Z,67.16
2022-12-27T21:05:26.081Z,67.44
2022-12-27T21:07:57.209Z,67.63
2022-12-27T21:10:27.845Z,67.71
2022-12-27T21:12:58.664Z,67.88
2022-12-27T21:15:31.298Z,67.96
2022-12-27T21:18:02.190Z,67.84
2022-12-27T21:20:32.866Z,67.85
2022-12-27T21:23:03.716Z,68.00
2022-12-27T21:25:35.549Z,67.76
2022-12-27T21:28:06.757Z,67.99
2022-12-27T21:30:37.640Z,68.06
2022-12-27T21:33:08.435Z,67.77
2022-12-27T21:35:39.229Z,68.03
2022-12-27T21:38:09.956Z,67.99
2022-12-27T21:40:40.706Z,68.00
2022-12-27T21:43:11.361Z,67.94
2022-12-27T21:45:42.084Z,67.69
2022-12-27T21:48:12.841Z,67.96
2022-12-27T21:50:43.588Z,67.64
2022-12-27T21:53:15.126Z,67.76
2022-12-27T21:55:46.229Z,67.87
2022-12-27T21:58:17.037Z,68.08
2022-12-27T22:00:47.708Z,68.30
2022-12-27T22:03:18.456Z,68.15
2022-12-27T22:05:49.207Z,68.49
2022-12-27T22:08:20.037Z,68.51
2022-12-27T22:10:58.148Z,68.72
2022-12-27T22:13:28.815Z,68.62
2022-12-27T22:16:01.598Z,68.54
2022-12-27T22:18:35.360Z,68.72
2022-12-27T22:21:07.927Z,69.05
2022-12-27T22:23:40.539Z,68.82
2022-12-27T22:26:14.645Z,69.28
2022-12-27T22:28:45.608Z,69.25
2022-12-27T22:31:18.691Z,69.34
2022-12-27T22:33:50.651Z,69.08
2022-12-27T22:36:23.189Z,69.63
2022-12-27T22:38:55.845Z,69.59
2022-12-27T22:41:28.350Z,69.36
2022-12-27T22:44:00.607Z,69.65
2022-12-27T22:46:58.528Z,69.85
2022-12-27T22:49:22.749Z,70.08
2022-12-27T22:51:53.470Z,69.93
2022-12-27T22:55:03.325Z,69.91
2022-12-27T22:57:14.982Z,70.12
2022-12-27T22:59:45.587Z,70.10
2022-12-27T23:02:16.336Z,70.39
2022-12-27T23:04:47.516Z,70.65
2022-12-27T23:07:20.129Z,70.26
2022-12-27T23:09:50.936Z,70.08
2022-12-27T23:12:21.845Z,70.13
2022-12-27T23:14:52.564Z,69.89
2022-12-27T23:17:23.357Z,70.17
2022-12-27T23:19:54.046Z,69.81
2022-12-27T23:22:24.684Z,69.86
2022-12-27T23:24:55.384Z,69.96
2022-12-27T23:27:26.031Z,69.86
2022-12-27T23:29:56.811Z,70.32
2022-12-27T23:32:27.501Z,70.20
2022-12-27T23:34:58.297Z,70.54
2022-12-27T23:37:28.909Z,70.76
2022-12-27T23:39:59.642Z,70.66
2022-12-27T23:42:30.387Z,70.56
2022-12-27T23:45:01.074Z,70.88
2022-12-27T23:47:31.732Z,70.97
2022-12-27T23:50:02.664Z,70.75
2022-12-27T23:52:33.391Z,70.78
2022-12-27T23:55:04.233Z,70.75
2022-12-27T23:57:34.924Z,70.47
